Maldives Meteorological Service

SYNOP

Station Code SYNOP
43555
AAXX 26064 43555 12470 12706 10310 20254 30123 40125 60001 81100 333 59007 81819=
43533
AAXX 26064 43533 12462 12705 10323 20248 30121 40123 60001 81100 333 59003 81818=
43577
AAXX 26064 43577 12466 32705 10326 20266 30124 40126 60001 82202 333 59001 82818=
43588
AAXX 26064 43588 12468 32707 10316 20259 30125 40126 60001 83901 333 59002 83818 81919=
43599
AAXX 26064 43599 12462 22709 10320 20252 30126 40128 60001 81201 333 59001 81818=
Last Updated : 2017-04-26 11:00:00